sensor_id;sensor_type;location;lat;lon;timestamp;pressure;altitude;pressure_sealevel;temperature
66403;BMP180;53212;52.112;5.144;2024-02-26T00:01:56;99947.00;;;5.50
66403;BMP180;53212;52.112;5.144;2024-02-26T00:04:22;99948.00;;;5.50
66403;BMP180;53212;52.112;5.144;2024-02-26T00:06:47;99952.20;;;5.50
66403;BMP180;53212;52.112;5.144;2024-02-26T00:09:15;99951.60;;;5.50
66403;BMP180;53212;52.112;5.144;2024-02-26T00:11:41;99952.40;;;5.50
66403;BMP180;53212;52.112;5.144;2024-02-26T00:14:06;99958.20;;;5.50
66403;BMP180;53212;52.112;5.144;2024-02-26T00:16:32;99955.40;;;5.42
66403;BMP180;53212;52.112;5.144;2024-02-26T00:18:58;99956.60;;;5.40
66403;BMP180;53212;52.112;5.144;2024-02-26T00:21:23;99957.80;;;5.40
66403;BMP180;53212;52.112;5.144;2024-02-26T00:23:50;99957.80;;;5.40
66403;BMP180;53212;52.112;5.144;2024-02-26T00:26:16;99957.40;;;5.40
66403;BMP180;53212;52.112;5.144;2024-02-26T00:28:42;99956.40;;;5.40
66403;BMP180;53212;52.112;5.144;2024-02-26T00:31:08;99958.20;;;5.40
66403;BMP180;53212;52.112;5.144;2024-02-26T00:33:34;99959.00;;;5.30
66403;BMP180;53212;52.112;5.144;2024-02-26T00:35:59;99958.40;;;5.30
66403;BMP180;53212;52.112;5.144;2024-02-26T00:38:25;99959.00;;;5.30
66403;BMP180;53212;52.112;5.144;2024-02-26T00:40:50;99962.40;;;5.30
66403;BMP180;53212;52.112;5.144;2024-02-26T00:43:16;99964.20;;;5.24
66403;BMP180;53212;52.112;5.144;2024-02-26T00:45:41;99963.40;;;5.20
66403;BMP180;53212;52.112;5.144;2024-02-26T00:48:07;99961.20;;;5.20
66403;BMP180;53212;52.112;5.144;2024-02-26T00:50:36;99964.40;;;5.20
66403;BMP180;53212;52.112;5.144;2024-02-26T00:53:01;99966.00;;;5.20
66403;BMP180;53212;52.112;5.144;2024-02-26T00:55:27;99965.20;;;5.16
66403;BMP180;53212;52.112;5.144;2024-02-26T00:57:52;99961.00;;;5.10
66403;BMP180;53212;52.112;5.144;2024-02-26T01:00:21;99958.20;;;5.10
66403;BMP180;53212;52.112;5.144;2024-02-26T01:02:47;99957.80;;;5.10
66403;BMP180;53212;52.112;5.144;2024-02-26T01:05:14;99961.20;;;5.10
66403;BMP180;53212;52.112;5.144;2024-02-26T01:07:40;99963.60;;;5.10
66403;BMP180;53212;52.112;5.144;2024-02-26T01:10:06;99960.20;;;5.10
66403;BMP180;53212;52.112;5.144;2024-02-26T01:12:33;99961.40;;;5.10
66403;BMP180;53212;52.112;5.144;2024-02-26T01:15:00;99960.40;;;5.10
66403;BMP180;53212;52.112;5.144;2024-02-26T01:17:26;99960.40;;;5.10
66403;BMP180;53212;52.112;5.144;2024-02-26T01:19:51;99958.40;;;5.10
66403;BMP180;53212;52.112;5.144;2024-02-26T01:22:19;99957.60;;;5.08
66403;BMP180;53212;52.112;5.144;2024-02-26T01:24:44;99961.80;;;5.00
66403;BMP180;53212;52.112;5.144;2024-02-26T01:27:09;99960.60;;;5.00
66403;BMP180;53212;52.112;5.144;2024-02-26T01:29:35;99958.00;;;5.02
66403;BMP180;53212;52.112;5.144;2024-02-26T01:32:00;99960.60;;;5.02
66403;BMP180;53212;52.112;5.144;2024-02-26T01:34:26;99952.80;;;5.02
66403;BMP180;53212;52.112;5.144;2024-02-26T01:36:51;99954.00;;;5.00
66403;BMP180;53212;52.112;5.144;2024-02-26T01:39:17;99953.80;;;5.04
66403;BMP180;53212;52.112;5.144;2024-02-26T01:41:43;99956.40;;;5.00
66403;BMP180;53212;52.112;5.144;2024-02-26T01:44:12;99953.60;;;5.00
66403;BMP180;53212;52.112;5.144;2024-02-26T01:46:37;99953.00;;;5.02
66403;BMP180;53212;52.112;5.144;2024-02-26T01:49:03;99953.60;;;5.00
66403;BMP180;53212;52.112;5.144;2024-02-26T01:51:30;99951.80;;;5.00
66403;BMP180;53212;52.112;5.144;2024-02-26T01:54:00;99952.40;;;5.00
66403;BMP180;53212;52.112;5.144;2024-02-26T01:56:27;99955.00;;;5.02
66403;BMP180;53212;52.112;5.144;2024-02-26T01:58:56;99958.00;;;5.08
66403;BMP180;53212;52.112;5.144;2024-02-26T02:01:33;99957.40;;;5.06
66403;BMP180;53212;52.112;5.144;2024-02-26T02:04:00;99961.40;;;5.10
66403;BMP180;53212;52.112;5.144;2024-02-26T02:06:26;99956.00;;;5.10
66403;BMP180;53212;52.112;5.144;2024-02-26T02:08:55;99961.80;;;5.10
66403;BMP180;53212;52.112;5.144;2024-02-26T02:11:21;99969.20;;;5.10
66403;BMP180;53212;52.112;5.144;2024-02-26T02:13:46;99968.40;;;5.10
66403;BMP180;53212;52.112;5.144;2024-02-26T02:16:13;99966.40;;;5.10
66403;BMP180;53212;52.112;5.144;2024-02-26T02:18:38;99973.40;;;5.10
66403;BMP180;53212;52.112;5.144;2024-02-26T02:21:04;99972.80;;;5.10
66403;BMP180;53212;52.112;5.144;2024-02-26T02:23:29;99979.80;;;5.10
66403;BMP180;53212;52.112;5.144;2024-02-26T02:25:56;99986.60;;;5.10
66403;BMP180;53212;52.112;5.144;2024-02-26T02:28:25;99985.40;;;5.10
66403;BMP180;53212;52.112;5.144;2024-02-26T02:30:51;99988.40;;;5.10
66403;BMP180;53212;52.112;5.144;2024-02-26T02:33:17;99983.00;;;5.10
66403;BMP180;53212;52.112;5.144;2024-02-26T02:35:43;99979.20;;;5.10
66403;BMP180;53212;52.112;5.144;2024-02-26T02:38:08;99981.80;;;5.12
66403;BMP180;53212;52.112;5.144;2024-02-26T02:40:34;99987.60;;;5.12
66403;BMP180;53212;52.112;5.144;2024-02-26T02:43:00;99989.00;;;5.12
66403;BMP180;53212;52.112;5.144;2024-02-26T02:45:28;99990.00;;;5.10
66403;BMP180;53212;52.112;5.144;2024-02-26T02:47:53;99993.00;;;5.12
66403;BMP180;53212;52.112;5.144;2024-02-26T02:50:19;99997.20;;;5.14
66403;BMP180;53212;52.112;5.144;2024-02-26T02:52:44;100007.40;;;5.18
66403;BMP180;53212;52.112;5.144;2024-02-26T02:55:10;100009.20;;;5.18
66403;BMP180;53212;52.112;5.144;2024-02-26T02:57:36;100012.60;;;5.20
66403;BMP180;53212;52.112;5.144;2024-02-26T03:00:10;100016.00;;;5.20
66403;BMP180;53212;52.112;5.144;2024-02-26T03:02:35;100021.40;;;5.20
66403;BMP180;53212;52.112;5.144;2024-02-26T03:05:04;100026.40;;;5.18
66403;BMP180;53212;52.112;5.144;2024-02-26T03:07:30;100029.00;;;5.20
66403;BMP180;53212;52.112;5.144;2024-02-26T03:09:55;100036.40;;;5.20
66403;BMP180;53212;52.112;5.144;2024-02-26T03:12:21;100034.00;;;5.14
66403;BMP180;53212;52.112;5.144;2024-02-26T03:14:46;100036.00;;;5.16
66403;BMP180;53212;52.112;5.144;2024-02-26T03:17:13;100038.20;;;5.14
66403;BMP180;53212;52.112;5.144;2024-02-26T03:19:38;100036.00;;;5.10
66403;BMP180;53212;52.112;5.144;2024-02-26T03:22:04;100045.80;;;5.10
66403;BMP180;53212;52.112;5.144;2024-02-26T03:24:30;100048.00;;;5.10
66403;BMP180;53212;52.112;5.144;2024-02-26T03:26:56;100057.60;;;5.10
66403;BMP180;53212;52.112;5.144;2024-02-26T03:29:21;100065.80;;;5.10
66403;BMP180;53212;52.112;5.144;2024-02-26T03:31:47;100063.60;;;5.10
66403;BMP180;53212;52.112;5.144;2024-02-26T03:34:12;100064.80;;;5.10
66403;BMP180;53212;52.112;5.144;2024-02-26T03:36:40;100067.00;;;5.10
66403;BMP180;53212;52.112;5.144;2024-02-26T03:39:06;100071.60;;;5.10
66403;BMP180;53212;52.112;5.144;2024-02-26T03:41:34;100075.20;;;5.10
66403;BMP180;53212;52.112;5.144;2024-02-26T03:44:01;100073.40;;;5.10
66403;BMP180;53212;52.112;5.144;2024-02-26T03:46:27;100069.80;;;5.10
66403;BMP180;53212;52.112;5.144;2024-02-26T03:48:53;100075.20;;;5.10
66403;BMP180;53212;52.112;5.144;2024-02-26T03:51:18;100071.80;;;5.10
66403;BMP180;53212;52.112;5.144;2024-02-26T03:53:43;100068.20;;;5.10
66403;BMP180;53212;52.112;5.144;2024-02-26T03:56:12;100074.00;;;5.10
66403;BMP180;53212;52.112;5.144;2024-02-26T03:58:43;100070.60;;;5.04
66403;BMP180;53212;52.112;5.144;2024-02-26T04:01:09;100070.20;;;5.04
66403;BMP180;53212;52.112;5.144;2024-02-26T04:03:35;100071.40;;;5.04
66403;BMP180;53212;52.112;5.144;2024-02-26T04:06:01;100074.00;;;5.02
66403;BMP180;53212;52.112;5.144;2024-02-26T04:08:31;100077.80;;;5.10
66403;BMP180;53212;52.112;5.144;2024-02-26T04:10:56;100069.20;;;5.06
66403;BMP180;53212;52.112;5.144;2024-02-26T04:13:22;100077.40;;;5.10
66403;BMP180;53212;52.112;5.144;2024-02-26T04:15:47;100079.80;;;5.10
66403;BMP180;53212;52.112;5.144;2024-02-26T04:18:13;100079.60;;;5.10
66403;BMP180;53212;52.112;5.144;2024-02-26T04:20:39;100084.40;;;5.10
66403;BMP180;53212;52.112;5.144;2024-02-26T04:23:08;100084.00;;;5.10
66403;BMP180;53212;52.112;5.144;2024-02-26T04:25:33;100083.40;;;5.10
66403;BMP180;53212;52.112;5.144;2024-02-26T04:27:58;100091.20;;;5.10
66403;BMP180;53212;52.112;5.144;2024-02-26T04:30:24;100094.20;;;5.10
66403;BMP180;53212;52.112;5.144;2024-02-26T04:32:49;100098.00;;;5.10
66403;BMP180;53212;52.112;5.144;2024-02-26T04:35:15;100096.80;;;5.12
66403;BMP180;53212;52.112;5.144;2024-02-26T04:37:40;100095.40;;;5.18
66403;BMP180;53212;52.112;5.144;2024-02-26T04:40:06;100096.80;;;5.12
66403;BMP180;53212;52.112;5.144;2024-02-26T04:42:33;100097.60;;;5.10
66403;BMP180;53212;52.112;5.144;2024-02-26T04:44:58;100100.40;;;5.10
66403;BMP180;53212;52.112;5.144;2024-02-26T04:47:24;100104.60;;;5.10
66403;BMP180;53212;52.112;5.144;2024-02-26T04:49:51;100103.60;;;5.10
66403;BMP180;53212;52.112;5.144;2024-02-26T04:52:19;100097.40;;;5.10
66403;BMP180;53212;52.112;5.144;2024-02-26T04:54:44;100100.20;;;5.10
66403;BMP180;53212;52.112;5.144;2024-02-26T04:57:09;100100.60;;;5.10
66403;BMP180;53212;52.112;5.144;2024-02-26T04:59:35;100107.40;;;5.10
66403;BMP180;53212;52.112;5.144;2024-02-26T05:02:00;100106.40;;;5.10
66403;BMP180;53212;52.112;5.144;2024-02-26T05:04:26;100103.80;;;5.04
66403;BMP180;53212;52.112;5.144;2024-02-26T05:06:51;100109.80;;;5.06
66403;BMP180;53212;52.112;5.144;2024-02-26T05:09:17;100114.00;;;5.06
66403;BMP180;53212;52.112;5.144;2024-02-26T05:11:42;100117.00;;;5.04
66403;BMP180;53212;52.112;5.144;2024-02-26T05:14:08;100118.00;;;5.08
66403;BMP180;53212;52.112;5.144;2024-02-26T05:16:34;100121.40;;;5.10
66403;BMP180;53212;52.112;5.144;2024-02-26T05:18:59;100126.80;;;5.10
66403;BMP180;53212;52.112;5.144;2024-02-26T05:21:25;100126.40;;;5.10
66403;BMP180;53212;52.112;5.144;2024-02-26T05:23:50;100125.40;;;5.10
66403;BMP180;53212;52.112;5.144;2024-02-26T05:26:23;100125.00;;;5.10
66403;BMP180;53212;52.112;5.144;2024-02-26T05:28:50;100134.20;;;5.10
66403;BMP180;53212;52.112;5.144;2024-02-26T05:31:16;100132.40;;;5.10
66403;BMP180;53212;52.112;5.144;2024-02-26T05:33:42;100127.40;;;5.10
66403;BMP180;53212;52.112;5.144;2024-02-26T05:36:08;100134.40;;;5.10
66403;BMP180;53212;52.112;5.144;2024-02-26T05:38:33;100137.20;;;5.10
66403;BMP180;53212;52.112;5.144;2024-02-26T05:40:59;100143.80;;;5.10
66403;BMP180;53212;52.112;5.144;2024-02-26T05:43:27;100144.60;;;5.02
66403;BMP180;53212;52.112;5.144;2024-02-26T05:45:53;100147.40;;;5.00
66403;BMP180;53212;52.112;5.144;2024-02-26T05:48:19;100148.20;;;5.00
66403;BMP180;53212;52.112;5.144;2024-02-26T05:50:46;100151.40;;;5.00
66403;BMP180;53212;52.112;5.144;2024-02-26T05:53:12;100151.40;;;5.00
66403;BMP180;53212;52.112;5.144;2024-02-26T05:55:37;100155.00;;;5.02
66403;BMP180;53212;52.112;5.144;2024-02-26T05:58:03;100154.20;;;5.00
66403;BMP180;53212;52.112;5.144;2024-02-26T06:00:28;100160.60;;;5.00
66403;BMP180;53212;52.112;5.144;2024-02-26T06:02:54;100158.00;;;5.00
66403;BMP180;53212;52.112;5.144;2024-02-26T06:05:19;100167.40;;;5.00
66403;BMP180;53212;52.112;5.144;2024-02-26T06:07:45;100170.80;;;5.00
66403;BMP180;53212;52.112;5.144;2024-02-26T06:10:10;100177.40;;;5.00
66403;BMP180;53212;52.112;5.144;2024-02-26T06:12:36;100177.20;;;5.00
66403;BMP180;53212;52.112;5.144;2024-02-26T06:15:02;100179.00;;;5.00
66403;BMP180;53212;52.112;5.144;2024-02-26T06:17:29;100174.80;;;5.00
66403;BMP180;53212;52.112;5.144;2024-02-26T06:19:54;100177.20;;;5.00
66403;BMP180;53212;52.112;5.144;2024-02-26T06:22:20;100184.20;;;5.00
66403;BMP180;53212;52.112;5.144;2024-02-26T06:24:45;100195.60;;;5.00
66403;BMP180;53212;52.112;5.144;2024-02-26T06:27:11;100200.80;;;5.00
66403;BMP180;53212;52.112;5.144;2024-02-26T06:29:37;100197.80;;;5.00
66403;BMP180;53212;52.112;5.144;2024-02-26T06:32:03;100197.60;;;5.06
66403;BMP180;53212;52.112;5.144;2024-02-26T06:34:29;100195.40;;;5.04
66403;BMP180;53212;52.112;5.144;2024-02-26T06:36:54;100198.60;;;5.08
66403;BMP180;53212;52.112;5.144;2024-02-26T06:39:19;100204.20;;;5.10
66403;BMP180;53212;52.112;5.144;2024-02-26T06:41:45;100212.00;;;5.10
66403;BMP180;53212;52.112;5.144;2024-02-26T06:44:13;100208.20;;;5.10
66403;BMP180;53212;52.112;5.144;2024-02-26T06:46:40;100215.60;;;5.10
66403;BMP180;53212;52.112;5.144;2024-02-26T06:49:05;100213.80;;;5.10
66403;BMP180;53212;52.112;5.144;2024-02-26T06:51:31;100218.60;;;5.10
66403;BMP180;53212;52.112;5.144;2024-02-26T06:53:56;100230.60;;;5.10
66403;BMP180;53212;52.112;5.144;2024-02-26T06:56:21;100232.00;;;5.10
66403;BMP180;53212;52.112;5.144;2024-02-26T06:58:47;100235.20;;;5.10
66403;BMP180;53212;52.112;5.144;2024-02-26T07:01:12;100231.00;;;5.10
66403;BMP180;53212;52.112;5.144;2024-02-26T07:03:40;100237.00;;;5.10
66403;BMP180;53212;52.112;5.144;2024-02-26T07:06:06;100238.40;;;5.10
66403;BMP180;53212;52.112;5.144;2024-02-26T07:08:32;100239.00;;;5.10
66403;BMP180;53212;52.112;5.144;2024-02-26T07:10:58;100246.40;;;5.10
66403;BMP180;53212;52.112;5.144;2024-02-26T07:13:23;100252.00;;;5.10
66403;BMP180;53212;52.112;5.144;2024-02-26T07:15:49;100253.00;;;5.10
66403;BMP180;53212;52.112;5.144;2024-02-26T07:18:14;100257.80;;;5.10
66403;BMP180;53212;52.112;5.144;2024-02-26T07:20:40;100260.00;;;5.10
66403;BMP180;53212;52.112;5.144;2024-02-26T07:23:05;100263.60;;;5.10
66403;BMP180;53212;52.112;5.144;2024-02-26T07:25:32;100265.80;;;5.10
66403;BMP180;53212;52.112;5.144;2024-02-26T07:27:57;100271.40;;;5.10
66403;BMP180;53212;52.112;5.144;2024-02-26T07:30:26;100282.60;;;5.10
66403;BMP180;53212;52.112;5.144;2024-02-26T07:32:52;100275.80;;;5.10
66403;BMP180;53212;52.112;5.144;2024-02-26T07:35:17;100270.20;;;5.10
66403;BMP180;53212;52.112;5.144;2024-02-26T07:37:43;100270.80;;;5.10
66403;BMP180;53212;52.112;5.144;2024-02-26T07:40:09;100274.00;;;5.18
66403;BMP180;53212;52.112;5.144;2024-02-26T07:42:35;100276.00;;;5.20
66403;BMP180;53212;52.112;5.144;2024-02-26T07:45:02;100280.20;;;5.20
66403;BMP180;53212;52.112;5.144;2024-02-26T07:47:30;100280.20;;;5.20
66403;BMP180;53212;52.112;5.144;2024-02-26T07:49:56;100290.60;;;5.20
66403;BMP180;53212;52.112;5.144;2024-02-26T07:52:21;100290.20;;;5.24
66403;BMP180;53212;52.112;5.144;2024-02-26T07:54:47;100294.00;;;5.30
66403;BMP180;53212;52.112;5.144;2024-02-26T07:57:12;100301.60;;;5.30
66403;BMP180;53212;52.112;5.144;2024-02-26T07:59:41;100303.40;;;5.30
66403;BMP180;53212;52.112;5.144;2024-02-26T08:02:07;100307.20;;;5.30
66403;BMP180;53212;52.112;5.144;2024-02-26T08:04:33;100306.80;;;5.30
66403;BMP180;53212;52.112;5.144;2024-02-26T08:06:58;100313.60;;;5.30
66403;BMP180;53212;52.112;5.144;2024-02-26T08:09:24;100323.40;;;5.30
66403;BMP180;53212;52.112;5.144;2024-02-26T08:11:49;100330.00;;;5.30
66403;BMP180;53212;52.112;5.144;2024-02-26T08:14:15;100332.80;;;5.38
66403;BMP180;53212;52.112;5.144;2024-02-26T08:16:40;100337.40;;;5.36
66403;BMP180;53212;52.112;5.144;2024-02-26T08:19:05;100344.80;;;5.30
66403;BMP180;53212;52.112;5.144;2024-02-26T08:21:31;100336.60;;;5.30
66403;BMP180;53212;52.112;5.144;2024-02-26T08:23:57;100345.80;;;5.34
66403;BMP180;53212;52.112;5.144;2024-02-26T08:26:22;100347.20;;;5.32
66403;BMP180;53212;52.112;5.144;2024-02-26T08:28:49;100352.40;;;5.30
66403;BMP180;53212;52.112;5.144;2024-02-26T08:31:16;100359.40;;;5.40
66403;BMP180;53212;52.112;5.144;2024-02-26T08:33:42;100365.40;;;5.40
66403;BMP180;53212;52.112;5.144;2024-02-26T08:36:08;100360.00;;;5.40
66403;BMP180;53212;52.112;5.144;2024-02-26T08:38:33;100362.40;;;5.40
66403;BMP180;53212;52.112;5.144;2024-02-26T08:41:02;100362.60;;;5.40
66403;BMP180;53212;52.112;5.144;2024-02-26T08:43:28;100364.60;;;5.40
66403;BMP180;53212;52.112;5.144;2024-02-26T08:45:53;100370.20;;;5.40
66403;BMP180;53212;52.112;5.144;2024-02-26T08:48:19;100377.80;;;5.50
66403;BMP180;53212;52.112;5.144;2024-02-26T08:50:44;100376.00;;;5.50
66403;BMP180;53212;52.112;5.144;2024-02-26T08:53:10;100375.80;;;5.50
66403;BMP180;53212;52.112;5.144;2024-02-26T08:55:35;100378.00;;;5.50
66403;BMP180;53212;52.112;5.144;2024-02-26T08:58:01;100381.60;;;5.60
66403;BMP180;53212;52.112;5.144;2024-02-26T09:00:26;100387.80;;;5.60
66403;BMP180;53212;52.112;5.144;2024-02-26T09:02:52;100395.80;;;5.68
66403;BMP180;53212;52.112;5.144;2024-02-26T09:05:17;100397.00;;;5.66
66403;BMP180;53212;52.112;5.144;2024-02-26T09:07:43;100403.00;;;5.60
66403;BMP180;53212;52.112;5.144;2024-02-26T09:10:09;100393.00;;;5.60
66403;BMP180;53212;52.112;5.144;2024-02-26T09:12:36;100395.60;;;5.56
66403;BMP180;53212;52.112;5.144;2024-02-26T09:15:03;100403.00;;;5.50
66403;BMP180;53212;52.112;5.144;2024-02-26T09:17:29;100408.60;;;5.50
66403;BMP180;53212;52.112;5.144;2024-02-26T09:19:54;100408.40;;;5.50
66403;BMP180;53212;52.112;5.144;2024-02-26T09:22:20;100411.00;;;5.50
66403;BMP180;53212;52.112;5.144;2024-02-26T09:24:45;100417.80;;;5.50
66403;BMP180;53212;52.112;5.144;2024-02-26T09:27:12;100422.20;;;5.50
66403;BMP180;53212;52.112;5.144;2024-02-26T09:29:37;100423.40;;;5.50
66403;BMP180;53212;52.112;5.144;2024-02-26T09:32:03;100425.40;;;5.40
66403;BMP180;53212;52.112;5.144;2024-02-26T09:34:28;100430.60;;;5.42
66403;BMP180;53212;52.112;5.144;2024-02-26T09:36:54;100429.00;;;5.40
66403;BMP180;53212;52.112;5.144;2024-02-26T09:39:19;100437.80;;;5.40
66403;BMP180;53212;52.112;5.144;2024-02-26T09:41:48;100436.20;;;5.40
66403;BMP180;53212;52.112;5.144;2024-02-26T09:44:19;100440.20;;;5.40
66403;BMP180;53212;52.112;5.144;2024-02-26T09:46:48;100439.00;;;5.40
66403;BMP180;53212;52.112;5.144;2024-02-26T09:49:19;100440.80;;;5.40
66403;BMP180;53212;52.112;5.144;2024-02-26T09:51:47;100448.40;;;5.40
66403;BMP180;53212;52.112;5.144;2024-02-26T09:54:15;100458.00;;;5.40
66403;BMP180;53212;52.112;5.144;2024-02-26T09:56:41;100456.60;;;5.40
66403;BMP180;53212;52.112;5.144;2024-02-26T09:59:15;100464.40;;;5.40
66403;BMP180;53212;52.112;5.144;2024-02-26T10:01:44;100463.20;;;5.40
66403;BMP180;53212;52.112;5.144;2024-02-26T10:04:11;100465.20;;;5.40
66403;BMP180;53212;52.112;5.144;2024-02-26T10:06:37;100465.80;;;5.40
66403;BMP180;53212;52.112;5.144;2024-02-26T10:09:09;100483.00;;;5.40
66403;BMP180;53212;52.112;5.144;2024-02-26T10:11:35;100483.40;;;5.40
66403;BMP180;53212;52.112;5.144;2024-02-26T10:14:01;100487.20;;;5.40
66403;BMP180;53212;52.112;5.144;2024-02-26T10:16:26;100491.20;;;5.42
66403;BMP180;53212;52.112;5.144;2024-02-26T10:18:53;100495.60;;;5.42
66403;BMP180;53212;52.112;5.144;2024-02-26T10:21:22;100497.60;;;5.44
66403;BMP180;53212;52.112;5.144;2024-02-26T10:23:49;100494.80;;;5.42
66403;BMP180;53212;52.112;5.144;2024-02-26T10:26:16;100500.20;;;5.40
66403;BMP180;53212;52.112;5.144;2024-02-26T10:28:45;100501.20;;;5.50
66403;BMP180;53212;52.112;5.144;2024-02-26T10:31:13;100507.40;;;5.50
66403;BMP180;53212;52.112;5.144;2024-02-26T10:33:41;100506.00;;;5.50
66403;BMP180;53212;52.112;5.144;2024-02-26T10:36:08;100512.00;;;5.50
66403;BMP180;53212;52.112;5.144;2024-02-26T10:38:35;100515.80;;;5.50
66403;BMP180;53212;52.112;5.144;2024-02-26T10:41:13;100517.80;;;5.50
66403;BMP180;53212;52.112;5.144;2024-02-26T10:43:42;100528.40;;;5.60
66403;BMP180;53212;52.112;5.144;2024-02-26T10:46:08;100524.60;;;5.60
66403;BMP180;53212;52.112;5.144;2024-02-26T10:48:33;100529.20;;;5.60
66403;BMP180;53212;52.112;5.144;2024-02-26T10:50:58;100538.40;;;5.64
66403;BMP180;53212;52.112;5.144;2024-02-26T10:53:29;100537.80;;;5.70
66403;BMP180;53212;52.112;5.144;2024-02-26T10:55:59;100546.00;;;5.70
66403;BMP180;53212;52.112;5.144;2024-02-26T10:58:26;100550.00;;;5.80
66403;BMP180;53212;52.112;5.144;2024-02-26T11:00:53;100555.40;;;5.80
66403;BMP180;53212;52.112;5.144;2024-02-26T11:03:20;100559.60;;;5.86
66403;BMP180;53212;52.112;5.144;2024-02-26T11:05:48;100563.80;;;5.90
66403;BMP180;53212;52.112;5.144;2024-02-26T11:08:19;100563.20;;;5.90
66403;BMP180;53212;52.112;5.144;2024-02-26T11:10:52;100568.80;;;5.92
66403;BMP180;53212;52.112;5.144;2024-02-26T11:13:19;100573.60;;;6.00
66403;BMP180;53212;52.112;5.144;2024-02-26T11:15:47;100574.60;;;6.00
66403;BMP180;53212;52.112;5.144;2024-02-26T11:18:15;100577.40;;;6.00
66403;BMP180;53212;52.112;5.144;2024-02-26T11:20:42;100580.20;;;6.06
66403;BMP180;53212;52.112;5.144;2024-02-26T11:23:08;100591.00;;;6.10
66403;BMP180;53212;52.112;5.144;2024-02-26T11:25:36;100587.00;;;6.10
66403;BMP180;53212;52.112;5.144;2024-02-26T11:28:06;100590.00;;;6.18
66403;BMP180;53212;52.112;5.144;2024-02-26T11:30:38;100594.60;;;6.22
66403;BMP180;53212;52.112;5.144;2024-02-26T11:33:09;100591.00;;;6.30
66403;BMP180;53212;52.112;5.144;2024-02-26T11:35:38;100596.40;;;6.30
66403;BMP180;53212;52.112;5.144;2024-02-26T11:38:04;100598.20;;;6.30
66403;BMP180;53212;52.112;5.144;2024-02-26T11:40:33;100604.20;;;6.36
66403;BMP180;53212;52.112;5.144;2024-02-26T11:42:58;100592.40;;;6.40
66403;BMP180;53212;52.112;5.144;2024-02-26T11:48:15;100605.00;;;6.40
66403;BMP180;53212;52.112;5.144;2024-02-26T11:50:42;100609.60;;;6.40
66403;BMP180;53212;52.112;5.144;2024-02-26T11:53:28;100611.00;;;6.50
66403;BMP180;53212;52.112;5.144;2024-02-26T11:59:11;100614.20;;;6.40
66403;BMP180;53212;52.112;5.144;2024-02-26T12:01:48;100617.20;;;6.40
66403;BMP180;53212;52.112;5.144;2024-02-26T12:04:24;100624.20;;;6.40
66403;BMP180;53212;52.112;5.144;2024-02-26T12:06:56;100624.60;;;6.40
66403;BMP180;53212;52.112;5.144;2024-02-26T12:12:09;100629.80;;;6.40
66403;BMP180;53212;52.112;5.144;2024-02-26T12:14:39;100634.40;;;6.40
66403;BMP180;53212;52.112;5.144;2024-02-26T12:17:05;100633.20;;;6.40
66403;BMP180;53212;52.112;5.144;2024-02-26T12:19:35;100641.60;;;6.40
66403;BMP180;53212;52.112;5.144;2024-02-26T12:22:02;100646.20;;;6.40
66403;BMP180;53212;52.112;5.144;2024-02-26T12:24:28;100646.80;;;6.40
66403;BMP180;53212;52.112;5.144;2024-02-26T12:26:53;100646.80;;;6.30
66403;BMP180;53212;52.112;5.144;2024-02-26T12:29:20;100647.00;;;6.30
66403;BMP180;53212;52.112;5.144;2024-02-26T12:31:45;100648.80;;;6.30
66403;BMP180;53212;52.112;5.144;2024-02-26T12:34:11;100648.40;;;6.30
66403;BMP180;53212;52.112;5.144;2024-02-26T12:36:37;100653.80;;;6.38
66403;BMP180;53212;52.112;5.144;2024-02-26T12:39:05;100659.00;;;6.40
66403;BMP180;53212;52.112;5.144;2024-02-26T12:41:35;100655.20;;;6.46
66403;BMP180;53212;52.112;5.144;2024-02-26T12:44:01;100663.20;;;6.50
66403;BMP180;53212;52.112;5.144;2024-02-26T12:46:26;100670.40;;;6.50
66403;BMP180;53212;52.112;5.144;2024-02-26T12:48:55;100670.20;;;6.50
66403;BMP180;53212;52.112;5.144;2024-02-26T12:51:23;100670.00;;;6.50
66403;BMP180;53212;52.112;5.144;2024-02-26T12:53:49;100678.80;;;6.52
66403;BMP180;53212;52.112;5.144;2024-02-26T12:56:18;100677.60;;;6.60
66403;BMP180;53212;52.112;5.144;2024-02-26T12:58:44;100684.80;;;6.60
66403;BMP180;53212;52.112;5.144;2024-02-26T13:01:17;100692.00;;;6.60
66403;BMP180;53212;52.112;5.144;2024-02-26T13:03:43;100694.40;;;6.60
66403;BMP180;53212;52.112;5.144;2024-02-26T13:06:09;100693.40;;;6.60
66403;BMP180;53212;52.112;5.144;2024-02-26T13:08:35;100694.60;;;6.60
66403;BMP180;53212;52.112;5.144;2024-02-26T13:11:00;100699.40;;;6.60
66403;BMP180;53212;52.112;5.144;2024-02-26T13:13:26;100701.40;;;6.60
66403;BMP180;53212;52.112;5.144;2024-02-26T13:16:14;100703.80;;;6.60
66403;BMP180;53212;52.112;5.144;2024-02-26T13:18:40;100714.40;;;6.60
66403;BMP180;53212;52.112;5.144;2024-02-26T13:21:14;100714.80;;;6.58
66403;BMP180;53212;52.112;5.144;2024-02-26T13:23:43;100717.00;;;6.50
66403;BMP180;53212;52.112;5.144;2024-02-26T13:26:12;100720.80;;;6.50
66403;BMP180;53212;52.112;5.144;2024-02-26T13:28:38;100720.00;;;6.50
66403;BMP180;53212;52.112;5.144;2024-02-26T13:31:05;100720.60;;;6.60
66403;BMP180;53212;52.112;5.144;2024-02-26T13:33:33;100725.80;;;6.60
66403;BMP180;53212;52.112;5.144;2024-02-26T13:36:00;100723.80;;;6.60
66403;BMP180;53212;52.112;5.144;2024-02-26T13:38:27;100734.60;;;6.60
66403;BMP180;53212;52.112;5.144;2024-02-26T13:40:54;100731.80;;;6.60
66403;BMP180;53212;52.112;5.144;2024-02-26T13:43:20;100730.40;;;6.60
66403;BMP180;53212;52.112;5.144;2024-02-26T13:45:46;100734.60;;;6.60
66403;BMP180;53212;52.112;5.144;2024-02-26T13:48:13;100743.80;;;6.50
66403;BMP180;53212;52.112;5.144;2024-02-26T13:50:40;100745.00;;;6.50
66403;BMP180;53212;52.112;5.144;2024-02-26T13:53:06;100754.00;;;6.50
66403;BMP180;53212;52.112;5.144;2024-02-26T13:55:32;100751.20;;;6.50
66403;BMP180;53212;52.112;5.144;2024-02-26T13:57:59;100759.20;;;6.50
66403;BMP180;53212;52.112;5.144;2024-02-26T14:00:30;100764.80;;;6.50
66403;BMP180;53212;52.112;5.144;2024-02-26T14:03:01;100764.80;;;6.50
66403;BMP180;53212;52.112;5.144;2024-02-26T14:05:26;100772.00;;;6.60
66403;BMP180;53212;52.112;5.144;2024-02-26T14:07:53;100777.20;;;6.60
66403;BMP180;53212;52.112;5.144;2024-02-26T14:10:20;100776.00;;;6.60
66403;BMP180;53212;52.112;5.144;2024-02-26T14:12:45;100775.60;;;6.58
66403;BMP180;53212;52.112;5.144;2024-02-26T14:15:11;100780.20;;;6.60
66403;BMP180;53212;52.112;5.144;2024-02-26T14:17:37;100779.00;;;6.60